sensor_id;sensor_type;location;lat;lon;timestamp;pressure;altitude;pressure_sealevel;temperature
73761;BMP280;69240;43.530;-5.646;2023-04-28T00:00:29;101289.06;;;17.16
73761;BMP280;69240;43.530;-5.646;2023-04-28T00:02:54;101282.94;;;17.26
73761;BMP280;69240;43.530;-5.646;2023-04-28T00:05:20;101283.19;;;17.23
73761;BMP280;69240;43.530;-5.646;2023-04-28T00:07:49;101286.34;;;17.16
73761;BMP280;69240;43.530;-5.646;2023-04-28T00:10:14;101276.09;;;17.36
73761;BMP280;69240;43.530;-5.646;2023-04-28T00:12:40;101278.78;;;17.31
73761;BMP280;69240;43.530;-5.646;2023-04-28T00:15:06;101268.47;;;17.35
73761;BMP280;69240;43.530;-5.646;2023-04-28T00:17:32;101265.06;;;17.34
73761;BMP280;69240;43.530;-5.646;2023-04-28T00:19:58;101256.63;;;17.27
73761;BMP280;69240;43.530;-5.646;2023-04-28T00:22:23;101261.50;;;17.12
73761;BMP280;69240;43.530;-5.646;2023-04-28T00:24:49;101246.78;;;17.24
73761;BMP280;69240;43.530;-5.646;2023-04-28T00:27:14;101261.63;;;17.45
73761;BMP280;69240;43.530;-5.646;2023-04-28T00:29:40;101264.53;;;17.25
73761;BMP280;69240;43.530;-5.646;2023-04-28T00:32:06;101269.66;;;17.17
73761;BMP280;69240;43.530;-5.646;2023-04-28T00:34:32;101263.03;;;17.24
73761;BMP280;69240;43.530;-5.646;2023-04-28T00:36:58;101260.78;;;17.17
73761;BMP280;69240;43.530;-5.646;2023-04-28T00:39:23;101255.19;;;17.20
73761;BMP280;69240;43.530;-5.646;2023-04-28T00:41:51;101254.19;;;17.29
73761;BMP280;69240;43.530;-5.646;2023-04-28T00:44:16;101257.84;;;17.26
73761;BMP280;69240;43.530;-5.646;2023-04-28T00:46:42;101260.84;;;17.28
73761;BMP280;69240;43.530;-5.646;2023-04-28T00:49:08;101268.44;;;17.24
73761;BMP280;69240;43.530;-5.646;2023-04-28T00:51:34;101259.13;;;17.36
73761;BMP280;69240;43.530;-5.646;2023-04-28T00:53:59;101267.03;;;17.45
73761;BMP280;69240;43.530;-5.646;2023-04-28T00:56:27;101261.59;;;17.34
73761;BMP280;69240;43.530;-5.646;2023-04-28T00:58:55;101256.22;;;17.45
73761;BMP280;69240;43.530;-5.646;2023-04-28T01:01:21;101254.75;;;17.54
73761;BMP280;69240;43.530;-5.646;2023-04-28T01:03:47;101250.81;;;17.55
73761;BMP280;69240;43.530;-5.646;2023-04-28T01:06:13;101277.38;;;17.52
73761;BMP280;69240;43.530;-5.646;2023-04-28T01:08:39;101262.34;;;17.50
73761;BMP280;69240;43.530;-5.646;2023-04-28T01:11:06;101251.78;;;17.42
73761;BMP280;69240;43.530;-5.646;2023-04-28T01:13:39;101247.34;;;17.39
73761;BMP280;69240;43.530;-5.646;2023-04-28T01:16:05;101249.81;;;17.48
73761;BMP280;69240;43.530;-5.646;2023-04-28T01:18:32;101259.88;;;17.47
73761;BMP280;69240;43.530;-5.646;2023-04-28T01:20:59;101251.25;;;17.38
73761;BMP280;69240;43.530;-5.646;2023-04-28T01:23:25;101247.75;;;17.10
73761;BMP280;69240;43.530;-5.646;2023-04-28T01:25:50;101240.81;;;16.98
73761;BMP280;69240;43.530;-5.646;2023-04-28T01:28:16;101239.53;;;16.88
73761;BMP280;69240;43.530;-5.646;2023-04-28T01:30:41;101239.78;;;16.90
73761;BMP280;69240;43.530;-5.646;2023-04-28T01:33:07;101246.94;;;16.93
73761;BMP280;69240;43.530;-5.646;2023-04-28T01:35:32;101247.53;;;16.66
73761;BMP280;69240;43.530;-5.646;2023-04-28T01:37:58;101252.97;;;16.77
73761;BMP280;69240;43.530;-5.646;2023-04-28T01:40:23;101250.78;;;16.75
73761;BMP280;69240;43.530;-5.646;2023-04-28T01:42:49;101254.97;;;16.82
73761;BMP280;69240;43.530;-5.646;2023-04-28T01:45:15;101260.25;;;17.07
73761;BMP280;69240;43.530;-5.646;2023-04-28T01:47:41;101271.81;;;17.08
73761;BMP280;69240;43.530;-5.646;2023-04-28T01:50:06;101259.50;;;17.07
73761;BMP280;69240;43.530;-5.646;2023-04-28T01:52:32;101258.63;;;16.73
73761;BMP280;69240;43.530;-5.646;2023-04-28T01:54:57;101260.94;;;16.86
73761;BMP280;69240;43.530;-5.646;2023-04-28T01:57:24;101260.66;;;16.89
73761;BMP280;69240;43.530;-5.646;2023-04-28T01:59:50;101240.97;;;16.78
73761;BMP280;69240;43.530;-5.646;2023-04-28T02:02:15;101247.81;;;16.73
73761;BMP280;69240;43.530;-5.646;2023-04-28T02:04:41;101236.75;;;16.77
73761;BMP280;69240;43.530;-5.646;2023-04-28T02:07:06;101239.34;;;16.49
73761;BMP280;69240;43.530;-5.646;2023-04-28T02:09:32;101241.91;;;16.69
73761;BMP280;69240;43.530;-5.646;2023-04-28T02:11:58;101239.59;;;16.57
73761;BMP280;69240;43.530;-5.646;2023-04-28T02:14:29;101233.38;;;16.76
73761;BMP280;69240;43.530;-5.646;2023-04-28T02:16:58;101232.41;;;16.85
73761;BMP280;69240;43.530;-5.646;2023-04-28T02:19:23;101222.59;;;16.87
73761;BMP280;69240;43.530;-5.646;2023-04-28T02:21:49;101229.91;;;16.76
73761;BMP280;69240;43.530;-5.646;2023-04-28T02:24:15;101226.44;;;16.70
73761;BMP280;69240;43.530;-5.646;2023-04-28T02:26:40;101212.97;;;16.86
73761;BMP280;69240;43.530;-5.646;2023-04-28T02:29:06;101219.66;;;17.02
73761;BMP280;69240;43.530;-5.646;2023-04-28T02:31:32;101221.94;;;17.09
73761;BMP280;69240;43.530;-5.646;2023-04-28T02:33:58;101224.16;;;17.16
73761;BMP280;69240;43.530;-5.646;2023-04-28T02:36:23;101225.81;;;17.02
73761;BMP280;69240;43.530;-5.646;2023-04-28T02:38:49;101226.78;;;16.94
73761;BMP280;69240;43.530;-5.646;2023-04-28T02:41:14;101227.50;;;16.89
73761;BMP280;69240;43.530;-5.646;2023-04-28T02:43:40;101235.69;;;16.58
73761;BMP280;69240;43.530;-5.646;2023-04-28T02:46:06;101229.97;;;16.45
73761;BMP280;69240;43.530;-5.646;2023-04-28T02:48:33;101233.09;;;16.38
73761;BMP280;69240;43.530;-5.646;2023-04-28T02:51:02;101233.63;;;16.42
73761;BMP280;69240;43.530;-5.646;2023-04-28T02:53:27;101231.19;;;16.44
73761;BMP280;69240;43.530;-5.646;2023-04-28T02:55:53;101226.38;;;16.59
73761;BMP280;69240;43.530;-5.646;2023-04-28T02:58:19;101227.34;;;16.56
73761;BMP280;69240;43.530;-5.646;2023-04-28T03:00:45;101228.38;;;16.64
73761;BMP280;69240;43.530;-5.646;2023-04-28T03:03:10;101217.63;;;16.75
73761;BMP280;69240;43.530;-5.646;2023-04-28T03:05:36;101222.28;;;16.80
73761;BMP280;69240;43.530;-5.646;2023-04-28T03:08:01;101235.16;;;16.90
73761;BMP280;69240;43.530;-5.646;2023-04-28T03:10:27;101234.38;;;16.90
73761;BMP280;69240;43.530;-5.646;2023-04-28T03:12:52;101227.00;;;16.85
73761;BMP280;69240;43.530;-5.646;2023-04-28T03:15:18;101228.81;;;16.57
73761;BMP280;69240;43.530;-5.646;2023-04-28T03:17:43;101227.84;;;16.60
73761;BMP280;69240;43.530;-5.646;2023-04-28T03:20:10;101237.59;;;16.52
73761;BMP280;69240;43.530;-5.646;2023-04-28T03:22:36;101237.94;;;16.65
73761;BMP280;69240;43.530;-5.646;2023-04-28T03:25:01;101233.25;;;16.60
73761;BMP280;69240;43.530;-5.646;2023-04-28T03:27:27;101239.19;;;16.64
73761;BMP280;69240;43.530;-5.646;2023-04-28T03:29:53;101232.34;;;16.74
73761;BMP280;69240;43.530;-5.646;2023-04-28T03:32:18;101235.75;;;16.69
73761;BMP280;69240;43.530;-5.646;2023-04-28T03:34:44;101229.34;;;16.61
73761;BMP280;69240;43.530;-5.646;2023-04-28T03:37:10;101233.19;;;16.49
73761;BMP280;69240;43.530;-5.646;2023-04-28T03:39:36;101231.25;;;16.55
73761;BMP280;69240;43.530;-5.646;2023-04-28T03:42:01;101233.41;;;16.45
73761;BMP280;69240;43.530;-5.646;2023-04-28T03:44:27;101229.28;;;16.50
73761;BMP280;69240;43.530;-5.646;2023-04-28T03:46:52;101232.91;;;16.47
73761;BMP280;69240;43.530;-5.646;2023-04-28T03:49:18;101226.72;;;16.35
73761;BMP280;69240;43.530;-5.646;2023-04-28T03:51:44;101222.75;;;16.31
73761;BMP280;69240;43.530;-5.646;2023-04-28T03:54:09;101225.47;;;16.36
73761;BMP280;69240;43.530;-5.646;2023-04-28T03:56:35;101222.06;;;16.41
73761;BMP280;69240;43.530;-5.646;2023-04-28T03:59:00;101220.91;;;16.48
73761;BMP280;69240;43.530;-5.646;2023-04-28T04:01:26;101211.28;;;16.47
73761;BMP280;69240;43.530;-5.646;2023-04-28T04:03:51;101216.47;;;16.45
73761;BMP280;69240;43.530;-5.646;2023-04-28T04:06:17;101211.44;;;16.27
73761;BMP280;69240;43.530;-5.646;2023-04-28T04:08:43;101205.16;;;16.41
73761;BMP280;69240;43.530;-5.646;2023-04-28T04:11:08;101197.31;;;16.43
73761;BMP280;69240;43.530;-5.646;2023-04-28T04:13:34;101196.38;;;16.57
73761;BMP280;69240;43.530;-5.646;2023-04-28T04:15:59;101200.84;;;16.60
73761;BMP280;69240;43.530;-5.646;2023-04-28T04:18:25;101193.72;;;16.62
73761;BMP280;69240;43.530;-5.646;2023-04-28T04:20:51;101198.34;;;16.56
73761;BMP280;69240;43.530;-5.646;2023-04-28T04:23:20;101204.06;;;16.69
73761;BMP280;69240;43.530;-5.646;2023-04-28T04:25:45;101197.84;;;16.58
73761;BMP280;69240;43.530;-5.646;2023-04-28T04:28:11;101205.59;;;16.34
73761;BMP280;69240;43.530;-5.646;2023-04-28T04:30:36;101199.28;;;16.48
73761;BMP280;69240;43.530;-5.646;2023-04-28T04:33:02;101188.56;;;16.59
73761;BMP280;69240;43.530;-5.646;2023-04-28T04:35:28;101187.56;;;16.62
73761;BMP280;69240;43.530;-5.646;2023-04-28T04:37:53;101191.78;;;16.68
73761;BMP280;69240;43.530;-5.646;2023-04-28T04:40:19;101192.06;;;16.76
73761;BMP280;69240;43.530;-5.646;2023-04-28T04:42:44;101191.75;;;16.63
73761;BMP280;69240;43.530;-5.646;2023-04-28T04:45:10;101193.25;;;16.64
73761;BMP280;69240;43.530;-5.646;2023-04-28T04:47:36;101196.44;;;16.68
73761;BMP280;69240;43.530;-5.646;2023-04-28T04:50:02;101190.19;;;16.45
73761;BMP280;69240;43.530;-5.646;2023-04-28T04:52:27;101195.22;;;16.27
73761;BMP280;69240;43.530;-5.646;2023-04-28T04:54:53;101196.44;;;16.26
73761;BMP280;69240;43.530;-5.646;2023-04-28T04:57:20;101185.78;;;16.06
73761;BMP280;69240;43.530;-5.646;2023-04-28T04:59:46;101192.50;;;16.21
73761;BMP280;69240;43.530;-5.646;2023-04-28T05:02:11;101197.22;;;16.32
73761;BMP280;69240;43.530;-5.646;2023-04-28T05:04:37;101192.41;;;16.47
73761;BMP280;69240;43.530;-5.646;2023-04-28T05:07:03;101197.78;;;16.47
73761;BMP280;69240;43.530;-5.646;2023-04-28T05:09:28;101201.16;;;16.31
73761;BMP280;69240;43.530;-5.646;2023-04-28T05:11:54;101199.69;;;16.30
73761;BMP280;69240;43.530;-5.646;2023-04-28T05:14:21;101207.69;;;16.50
73761;BMP280;69240;43.530;-5.646;2023-04-28T05:16:46;101205.19;;;16.52
73761;BMP280;69240;43.530;-5.646;2023-04-28T05:19:11;101197.38;;;16.54
73761;BMP280;69240;43.530;-5.646;2023-04-28T05:21:37;101188.03;;;16.55
73761;BMP280;69240;43.530;-5.646;2023-04-28T05:24:03;101205.16;;;16.41
73761;BMP280;69240;43.530;-5.646;2023-04-28T05:26:28;101200.19;;;16.34
73761;BMP280;69240;43.530;-5.646;2023-04-28T05:28:54;101207.31;;;16.37
73761;BMP280;69240;43.530;-5.646;2023-04-28T05:31:19;101195.59;;;16.45
73761;BMP280;69240;43.530;-5.646;2023-04-28T05:33:45;101203.19;;;16.47
73761;BMP280;69240;43.530;-5.646;2023-04-28T05:36:11;101189.00;;;16.52
73761;BMP280;69240;43.530;-5.646;2023-04-28T05:38:37;101186.25;;;16.46
73761;BMP280;69240;43.530;-5.646;2023-04-28T05:41:03;101186.13;;;16.61
73761;BMP280;69240;43.530;-5.646;2023-04-28T05:43:28;101184.16;;;16.67
73761;BMP280;69240;43.530;-5.646;2023-04-28T05:45:54;101190.56;;;16.64
73761;BMP280;69240;43.530;-5.646;2023-04-28T05:48:19;101201.22;;;16.42
73761;BMP280;69240;43.530;-5.646;2023-04-28T05:50:45;101196.81;;;16.44
73761;BMP280;69240;43.530;-5.646;2023-04-28T05:53:11;101187.75;;;16.47
73761;BMP280;69240;43.530;-5.646;2023-04-28T05:55:36;101203.25;;;16.58
73761;BMP280;69240;43.530;-5.646;2023-04-28T05:58:03;101203.53;;;16.54
73761;BMP280;69240;43.530;-5.646;2023-04-28T06:00:28;101204.34;;;16.77
73761;BMP280;69240;43.530;-5.646;2023-04-28T06:02:54;101211.69;;;16.71
73761;BMP280;69240;43.530;-5.646;2023-04-28T06:05:20;101202.56;;;16.63
73761;BMP280;69240;43.530;-5.646;2023-04-28T06:07:46;101202.34;;;16.72
73761;BMP280;69240;43.530;-5.646;2023-04-28T06:10:11;101193.84;;;16.84
73761;BMP280;69240;43.530;-5.646;2023-04-28T06:12:37;101192.09;;;16.87
73761;BMP280;69240;43.530;-5.646;2023-04-28T06:15:04;101194.06;;;16.81
73761;BMP280;69240;43.530;-5.646;2023-04-28T06:17:30;101194.28;;;16.77
73761;BMP280;69240;43.530;-5.646;2023-04-28T06:19:57;101200.72;;;16.91
73761;BMP280;69240;43.530;-5.646;2023-04-28T06:22:26;101200.25;;;17.03
73761;BMP280;69240;43.530;-5.646;2023-04-28T06:24:52;101196.13;;;17.08
73761;BMP280;69240;43.530;-5.646;2023-04-28T06:27:17;101193.19;;;17.06
73761;BMP280;69240;43.530;-5.646;2023-04-28T06:29:44;101187.72;;;16.95
73761;BMP280;69240;43.530;-5.646;2023-04-28T06:32:09;101195.38;;;17.07
73761;BMP280;69240;43.530;-5.646;2023-04-28T06:34:36;101200.78;;;17.13
73761;BMP280;69240;43.530;-5.646;2023-04-28T06:37:01;101202.06;;;17.23
73761;BMP280;69240;43.530;-5.646;2023-04-28T06:39:27;101205.50;;;17.23
73761;BMP280;69240;43.530;-5.646;2023-04-28T06:41:53;101216.13;;;17.43
73761;BMP280;69240;43.530;-5.646;2023-04-28T06:44:18;101219.31;;;17.42
73761;BMP280;69240;43.530;-5.646;2023-04-28T06:46:44;101220.06;;;17.48
73761;BMP280;69240;43.530;-5.646;2023-04-28T06:49:09;101213.69;;;17.67
73761;BMP280;69240;43.530;-5.646;2023-04-28T06:51:35;101211.97;;;17.80
73761;BMP280;69240;43.530;-5.646;2023-04-28T06:54:01;101217.38;;;17.91
73761;BMP280;69240;43.530;-5.646;2023-04-28T06:56:26;101210.97;;;17.94
73761;BMP280;69240;43.530;-5.646;2023-04-28T06:58:54;101213.19;;;17.74
73761;BMP280;69240;43.530;-5.646;2023-04-28T07:01:19;101208.75;;;17.71
73761;BMP280;69240;43.530;-5.646;2023-04-28T07:03:45;101206.56;;;17.80
73761;BMP280;69240;43.530;-5.646;2023-04-28T07:06:29;101203.38;;;17.76
73761;BMP280;69240;43.530;-5.646;2023-04-28T07:08:56;101204.34;;;17.63
73761;BMP280;69240;43.530;-5.646;2023-04-28T07:11:22;101194.75;;;17.78
73761;BMP280;69240;43.530;-5.646;2023-04-28T07:13:47;101201.84;;;17.97
73761;BMP280;69240;43.530;-5.646;2023-04-28T07:16:16;101204.59;;;17.86
73761;BMP280;69240;43.530;-5.646;2023-04-28T07:18:42;101201.38;;;17.93
73761;BMP280;69240;43.530;-5.646;2023-04-28T07:21:07;101207.53;;;17.99
73761;BMP280;69240;43.530;-5.646;2023-04-28T07:23:33;101210.50;;;18.01
73761;BMP280;69240;43.530;-5.646;2023-04-28T07:25:58;101212.44;;;18.06
73761;BMP280;69240;43.530;-5.646;2023-04-28T07:28:24;101211.94;;;18.02
73761;BMP280;69240;43.530;-5.646;2023-04-28T07:30:50;101197.94;;;17.82
73761;BMP280;69240;43.530;-5.646;2023-04-28T07:33:16;101204.34;;;17.90
73761;BMP280;69240;43.530;-5.646;2023-04-28T07:35:43;101209.97;;;18.08
73761;BMP280;69240;43.530;-5.646;2023-04-28T07:38:09;101215.88;;;18.12
73761;BMP280;69240;43.530;-5.646;2023-04-28T07:40:34;101211.94;;;18.24
73761;BMP280;69240;43.530;-5.646;2023-04-28T07:43:00;101211.69;;;18.22
73761;BMP280;69240;43.530;-5.646;2023-04-28T07:45:25;101209.19;;;18.41
73761;BMP280;69240;43.530;-5.646;2023-04-28T07:47:51;101202.25;;;18.51
73761;BMP280;69240;43.530;-5.646;2023-04-28T07:50:17;101210.84;;;18.60
73761;BMP280;69240;43.530;-5.646;2023-04-28T07:52:42;101214.88;;;18.37
73761;BMP280;69240;43.530;-5.646;2023-04-28T07:55:08;101222.94;;;18.48
73761;BMP280;69240;43.530;-5.646;2023-04-28T07:57:34;101229.56;;;18.58
73761;BMP280;69240;43.530;-5.646;2023-04-28T08:00:00;101231.25;;;18.67
73761;BMP280;69240;43.530;-5.646;2023-04-28T08:02:25;101233.94;;;18.83
73761;BMP280;69240;43.530;-5.646;2023-04-28T08:04:51;101222.13;;;18.75
73761;BMP280;69240;43.530;-5.646;2023-04-28T08:07:17;101217.91;;;18.80
73761;BMP280;69240;43.530;-5.646;2023-04-28T08:09:42;101221.44;;;18.53
73761;BMP280;69240;43.530;-5.646;2023-04-28T08:12:12;101223.66;;;18.65
73761;BMP280;69240;43.530;-5.646;2023-04-28T08:14:37;101226.09;;;18.63
73761;BMP280;69240;43.530;-5.646;2023-04-28T08:17:03;101221.41;;;18.69
73761;BMP280;69240;43.530;-5.646;2023-04-28T08:19:29;101232.44;;;18.82
73761;BMP280;69240;43.530;-5.646;2023-04-28T08:21:54;101229.84;;;19.06
73761;BMP280;69240;43.530;-5.646;2023-04-28T08:24:20;101224.50;;;18.95
73761;BMP280;69240;43.530;-5.646;2023-04-28T08:26:45;101236.38;;;18.87
73761;BMP280;69240;43.530;-5.646;2023-04-28T08:29:11;101231.88;;;19.00
73761;BMP280;69240;43.530;-5.646;2023-04-28T08:31:39;101229.75;;;18.77
73761;BMP280;69240;43.530;-5.646;2023-04-28T08:34:05;101226.75;;;18.80
73761;BMP280;69240;43.530;-5.646;2023-04-28T08:36:30;101226.19;;;18.98
73761;BMP280;69240;43.530;-5.646;2023-04-28T08:38:58;101222.44;;;19.12
73761;BMP280;69240;43.530;-5.646;2023-04-28T08:41:25;101235.28;;;19.06
73761;BMP280;69240;43.530;-5.646;2023-04-28T08:43:53;101220.53;;;18.96
73761;BMP280;69240;43.530;-5.646;2023-04-28T08:46:20;101226.53;;;19.24
73761;BMP280;69240;43.530;-5.646;2023-04-28T08:48:48;101216.13;;;19.34
73761;BMP280;69240;43.530;-5.646;2023-04-28T08:51:15;101224.53;;;19.65
73761;BMP280;69240;43.530;-5.646;2023-04-28T08:53:43;101213.28;;;19.50
73761;BMP280;69240;43.530;-5.646;2023-04-28T08:56:09;101215.22;;;19.20
73761;BMP280;69240;43.530;-5.646;2023-04-28T08:58:38;101210.19;;;19.00
73761;BMP280;69240;43.530;-5.646;2023-04-28T09:01:04;101217.31;;;19.03
73761;BMP280;69240;43.530;-5.646;2023-04-28T09:03:30;101231.75;;;19.22
73761;BMP280;69240;43.530;-5.646;2023-04-28T09:05:57;101236.88;;;19.66
73761;BMP280;69240;43.530;-5.646;2023-04-28T09:08:23;101225.44;;;19.73
73761;BMP280;69240;43.530;-5.646;2023-04-28T09:11:05;101226.22;;;19.68
73761;BMP280;69240;43.530;-5.646;2023-04-28T09:13:31;101223.16;;;19.53
73761;BMP280;69240;43.530;-5.646;2023-04-28T09:16:01;101210.63;;;19.45
73761;BMP280;69240;43.530;-5.646;2023-04-28T09:18:28;101212.19;;;19.64
73761;BMP280;69240;43.530;-5.646;2023-04-28T09:21:07;101200.50;;;19.45
73761;BMP280;69240;43.530;-5.646;2023-04-28T09:23:33;101213.81;;;19.78
73761;BMP280;69240;43.530;-5.646;2023-04-28T09:26:06;101214.34;;;19.71
73761;BMP280;69240;43.530;-5.646;2023-04-28T09:28:33;101217.94;;;19.55
73761;BMP280;69240;43.530;-5.646;2023-04-28T09:30:59;101216.84;;;19.93
73761;BMP280;69240;43.530;-5.646;2023-04-28T09:33:25;101221.28;;;19.67
73761;BMP280;69240;43.530;-5.646;2023-04-28T09:35:51;101227.53;;;19.91
73761;BMP280;69240;43.530;-5.646;2023-04-28T09:38:18;101223.06;;;19.64
73761;BMP280;69240;43.530;-5.646;2023-04-28T09:40:57;101213.75;;;19.54
73761;BMP280;69240;43.530;-5.646;2023-04-28T09:43:33;101199.88;;;19.63
73761;BMP280;69240;43.530;-5.646;2023-04-28T09:46:03;101208.56;;;19.21
73761;BMP280;69240;43.530;-5.646;2023-04-28T09:48:34;101205.47;;;19.01
73761;BMP280;69240;43.530;-5.646;2023-04-28T09:51:02;101209.25;;;18.87
73761;BMP280;69240;43.530;-5.646;2023-04-28T09:53:28;101224.56;;;19.25
73761;BMP280;69240;43.530;-5.646;2023-04-28T09:55:56;101223.75;;;19.35
73761;BMP280;69240;43.530;-5.646;2023-04-28T09:58:23;101228.66;;;19.42
73761;BMP280;69240;43.530;-5.646;2023-04-28T10:00:55;101222.44;;;19.47
73761;BMP280;69240;43.530;-5.646;2023-04-28T10:03:22;101198.31;;;19.97
73761;BMP280;69240;43.530;-5.646;2023-04-28T10:05:48;101202.38;;;19.26
73761;BMP280;69240;43.530;-5.646;2023-04-28T10:08:16;101197.69;;;18.86
73761;BMP280;69240;43.530;-5.646;2023-04-28T10:10:45;101201.88;;;18.87
73761;BMP280;69240;43.530;-5.646;2023-04-28T10:13:16;101200.44;;;18.75
73761;BMP280;69240;43.530;-5.646;2023-04-28T10:15:42;101200.59;;;18.88
73761;BMP280;69240;43.530;-5.646;2023-04-28T10:18:08;101203.00;;;18.51
73761;BMP280;69240;43.530;-5.646;2023-04-28T10:20:35;101207.28;;;18.82
73761;BMP280;69240;43.530;-5.646;2023-04-28T10:25:47;101199.34;;;19.00
73761;BMP280;69240;43.530;-5.646;2023-04-28T10:28:14;101198.06;;;18.44
73761;BMP280;69240;43.530;-5.646;2023-04-28T10:30:40;101212.63;;;18.36
73761;BMP280;69240;43.530;-5.646;2023-04-28T10:35:44;101220.75;;;18.30
73761;BMP280;69240;43.530;-5.646;2023-04-28T10:38:18;101211.28;;;18.75
73761;BMP280;69240;43.530;-5.646;2023-04-28T10:40:48;101198.28;;;18.57
73761;BMP280;69240;43.530;-5.646;2023-04-28T10:45:59;101192.63;;;18.55
73761;BMP280;69240;43.530;-5.646;2023-04-28T10:56:12;101194.88;;;18.40
73761;BMP280;69240;43.530;-5.646;2023-04-28T10:58:39;101187.16;;;18.66
73761;BMP280;69240;43.530;-5.646;2023-04-28T11:01:32;101185.06;;;18.94
73761;BMP280;69240;43.530;-5.646;2023-04-28T11:03:59;101172.94;;;18.49
73761;BMP280;69240;43.530;-5.646;2023-04-28T11:06:36;101182.41;;;18.04
73761;BMP280;69240;43.530;-5.646;2023-04-28T11:16:48;101209.31;;;18.70
73761;BMP280;69240;43.530;-5.646;2023-04-28T11:19:19;101210.75;;;18.82
73761;BMP280;69240;43.530;-5.646;2023-04-28T11:21:47;101224.25;;;18.93
73761;BMP280;69240;43.530;-5.646;2023-04-28T11:24:13;101227.63;;;18.53
73761;BMP280;69240;43.530;-5.646;2023-04-28T11:26:39;101219.44;;;18.70
73761;BMP280;69240;43.530;-5.646;2023-04-28T11:29:05;101218.31;;;18.21
73761;BMP280;69240;43.530;-5.646;2023-04-28T11:31:31;101230.38;;;18.26
73761;BMP280;69240;43.530;-5.646;2023-04-28T11:34:08;101239.53;;;18.28
73761;BMP280;69240;43.530;-5.646;2023-04-28T11:36:40;101227.22;;;18.11
73761;BMP280;69240;43.530;-5.646;2023-04-28T11:39:10;101227.94;;;18.28
73761;BMP280;69240;43.530;-5.646;2023-04-28T11:41:37;101237.00;;;18.41
73761;BMP280;69240;43.530;-5.646;2023-04-28T11:44:17;101248.97;;;18.79
73761;BMP280;69240;43.530;-5.646;2023-04-28T11:46:54;101247.97;;;18.87
73761;BMP280;69240;43.530;-5.646;2023-04-28T11:49:28;101264.50;;;18.78
73761;BMP280;69240;43.530;-5.646;2023-04-28T11:51:55;101262.97;;;18.88
73761;BMP280;69240;43.530;-5.646;2023-04-28T11:54:27;101272.84;;;18.80
73761;BMP280;69240;43.530;-5.646;2023-04-28T11:56:55;101275.09;;;18.71
73761;BMP280;69240;43.530;-5.646;2023-04-28T11:59:28;101282.22;;;18.79
73761;BMP280;69240;43.530;-5.646;2023-04-28T12:02:00;101276.66;;;18.50
73761;BMP280;69240;43.530;-5.646;2023-04-28T12:04:32;101274.22;;;18.35
73761;BMP280;69240;43.530;-5.646;2023-04-28T12:09:41;101280.16;;;18.01
73761;BMP280;69240;43.530;-5.646;2023-04-28T12:12:09;101287.28;;;17.98
73761;BMP280;69240;43.530;-5.646;2023-04-28T12:14:59;101301.03;;;18.44
73761;BMP280;69240;43.530;-5.646;2023-04-28T12:20:01;101311.59;;;18.70
73761;BMP280;69240;43.530;-5.646;2023-04-28T12:22:28;101306.44;;;18.55
73761;BMP280;69240;43.530;-5.646;2023-04-28T12:27:28;101325.59;;;18.79
73761;BMP280;69240;43.530;-5.646;2023-04-28T12:29:55;101324.38;;;18.75
73761;BMP280;69240;43.530;-5.646;2023-04-28T12:32:39;101320.28;;;18.46
73761;BMP280;69240;43.530;-5.646;2023-04-28T12:35:06;101317.31;;;18.33
73761;BMP280;69240;43.530;-5.646;2023-04-28T12:37:31;101328.66;;;18.37
73761;BMP280;69240;43.530;-5.646;2023-04-28T12:39:57;101328.63;;;18.59
73761;BMP280;69240;43.530;-5.646;2023-04-28T12:42:23;101343.34;;;18.80
73761;BMP280;69240;43.530;-5.646;2023-04-28T12:44:49;101341.84;;;18.90
73761;BMP280;69240;43.530;-5.646;2023-04-28T12:47:15;101345.31;;;18.91
73761;BMP280;69240;43.530;-5.646;2023-04-28T12:49:42;101351.94;;;19.01
73761;BMP280;69240;43.530;-5.646;2023-04-28T12:52:08;101360.81;;;19.01
73761;BMP280;69240;43.530;-5.646;2023-04-28T12:54:34;101358.91;;;18.52
73761;BMP280;69240;43.530;-5.646;2023-04-28T12:57:00;101370.00;;;18.43
73761;BMP280;69240;43.530;-5.646;2023-04-28T12:59:27;101371.28;;;18.42
73761;BMP280;69240;43.530;-5.646;2023-04-28T13:01:53;101365.81;;;18.48
73761;BMP280;69240;43.530;-5.646;2023-04-28T13:04:19;101370.97;;;18.68
73761;BMP280;69240;43.530;-5.646;2023-04-28T13:06:45;101372.47;;;18.63
73761;BMP280;69240;43.530;-5.646;2023-04-28T13:09:15;101376.88;;;18.77
73761;BMP280;69240;43.530;-5.646;2023-04-28T13:11:41;101388.00;;;18.63
73761;BMP280;69240;43.530;-5.646;2023-04-28T13:14:07;101381.63;;;18.33
73761;BMP280;69240;43.530;-5.646;2023-04-28T13:16:33;101378.59;;;18.03
73761;BMP280;69240;43.530;-5.646;2023-04-28T13:19:00;101387.50;;;18.48
73761;BMP280;69240;43.530;-5.646;2023-04-28T13:21:26;101393.16;;;18.66
73761;BMP280;69240;43.530;-5.646;2023-04-28T13:23:56;101389.25;;;18.67
73761;BMP280;69240;43.530;-5.646;2023-04-28T13:26:22;101396.31;;;18.98
73761;BMP280;69240;43.530;-5.646;2023-04-28T13:28:49;101380.03;;;19.09
73761;BMP280;69240;43.530;-5.646;2023-04-28T13:31:15;101391.91;;;18.95
73761;BMP280;69240;43.530;-5.646;2023-04-28T13:33:40;101389.72;;;18.60
73761;BMP280;69240;43.530;-5.646;2023-04-28T13:36:07;101376.38;;;18.84
73761;BMP280;69240;43.530;-5.646;2023-04-28T13:38:33;101379.88;;;18.46
73761;BMP280;69240;43.530;-5.646;2023-04-28T13:40:58;101384.31;;;18.38
73761;BMP280;69240;43.530;-5.646;2023-04-28T13:43:25;101395.41;;;18.51
73761;BMP280;69240;43.530;-5.646;2023-04-28T13:45:51;101396.09;;;18.79
73761;BMP280;69240;43.530;-5.646;2023-04-28T13:48:17;101400.56;;;18.88
73761;BMP280;69240;43.530;-5.646;2023-04-28T13:50:43;101396.38;;;18.59
73761;BMP280;69240;43.530;-5.646;2023-04-28T13:53:09;101391.69;;;18.54
73761;BMP280;69240;43.530;-5.646;2023-04-28T13:55:35;101381.59;;;18.60
73761;BMP280;69240;43.530;-5.646;2023-04-28T13:58:01;101384.03;;;18.75
73761;BMP280;69240;43.530;-5.646;2023-04-28T14:00:31;101378.88;;;18.05
73761;BMP280;69240;43.530;-5.646;2023-04-28T14:02:57;101399.22;;;17.68
73761;BMP280;69240;43.530;-5.646;2023-04-28T14:05:23;101393.38;;;17.91
73761;BMP280;69240;43.530;-5.646;2023-04-28T14:07:49;101400.69;;;17.80
73761;BMP280;69240;43.530;-5.646;2023-04-28T14:10:15;101401.47;;;17.86
73761;BMP280;69240;43.530;-5.646;2023-04-28T14:12:40;101396.09;;;18.02